createdAt,value
2017-12-19T00:00:50.131Z,718.94
2017-12-19T00:01:50.989Z,718.89
2017-12-19T00:02:51.064Z,718.95
2017-12-19T00:03:51.535Z,718.70
2017-12-19T00:04:51.995Z,718.91
2017-12-19T00:05:52.461Z,718.91
2017-12-19T00:06:52.979Z,718.87
2017-12-19T00:07:53.393Z,718.89
2017-12-19T00:08:53.862Z,718.82
2017-12-19T00:09:54.326Z,719.00
2017-12-19T00:10:54.794Z,719.03
2017-12-19T00:11:55.310Z,719.05
2017-12-19T00:12:55.723Z,718.97
2017-12-19T00:13:56.190Z,718.95
2017-12-19T00:14:56.655Z,719.03
2017-12-19T00:15:57.121Z,719.01
2017-12-19T00:16:57.587Z,719.09
2017-12-19T00:17:58.057Z,719.02
2017-12-19T00:18:58.520Z,718.98
2017-12-19T00:19:58.985Z,719.11
2017-12-19T00:20:59.451Z,718.94
2017-12-19T00:21:59.969Z,719.03
2017-12-19T00:23:00.384Z,719.18
2017-12-19T00:24:00.850Z,719.09
2017-12-19T00:25:01.316Z,719.00
2017-12-19T00:26:01.785Z,719.06
2017-12-19T00:27:02.248Z,718.99
2017-12-19T00:28:02.716Z,719.10
2017-12-19T00:29:03.180Z,719.13
2017-12-19T00:30:03.650Z,718.98
2017-12-19T00:31:04.114Z,719.31
2017-12-19T00:32:04.972Z,719.10
2017-12-19T00:33:05.047Z,719.17
2017-12-19T00:34:05.510Z,719.30
2017-12-19T00:35:05.978Z,719.10
2017-12-19T00:36:06.442Z,719.10
2017-12-19T00:37:06.908Z,719.17
2017-12-19T00:38:07.375Z,719.26
2017-12-19T00:39:07.841Z,719.31
2017-12-19T00:40:08.306Z,719.07
2017-12-19T00:41:08.772Z,719.26
2017-12-19T00:42:09.289Z,719.19
2017-12-19T00:43:09.705Z,719.13
2017-12-19T00:44:10.169Z,719.22
2017-12-19T00:45:10.636Z,719.30
2017-12-19T00:46:11.103Z,719.31
2017-12-19T00:47:11.569Z,719.30
2017-12-19T00:48:12.035Z,719.26
2017-12-19T00:49:12.501Z,719.38
2017-12-19T00:50:12.967Z,719.33
2017-12-19T00:51:13.434Z,719.36
2017-12-19T00:52:13.949Z,719.41
2017-12-19T00:53:14.365Z,719.41
2017-12-19T00:54:14.831Z,719.39
2017-12-19T00:55:15.298Z,719.46
2017-12-19T00:56:15.762Z,719.41
2017-12-19T00:57:16.229Z,719.45
2017-12-19T00:58:16.695Z,719.38
2017-12-19T00:59:17.162Z,719.42
2017-12-19T01:00:17.627Z,719.48
2017-12-19T01:01:18.094Z,719.47
2017-12-19T01:02:18.608Z,719.48
2017-12-19T01:03:19.025Z,719.52
2017-12-19T01:04:19.490Z,719.45
2017-12-19T01:05:19.958Z,719.51
2017-12-19T01:06:20.423Z,719.47
2017-12-19T01:07:21.231Z,719.49
2017-12-19T01:08:21.358Z,719.53
2017-12-19T01:09:21.822Z,719.53
2017-12-19T01:10:22.325Z,719.49
2017-12-19T01:11:22.759Z,719.60
2017-12-19T01:12:23.219Z,719.64
2017-12-19T01:13:23.686Z,719.68
2017-12-19T01:14:24.153Z,719.63
2017-12-19T01:15:24.619Z,719.61
2017-12-19T01:16:25.083Z,719.69
2017-12-19T01:17:25.553Z,719.70
2017-12-19T01:18:26.017Z,719.68
2017-12-19T01:19:26.484Z,719.64
2017-12-19T01:20:26.953Z,719.65
2017-12-19T01:21:27.417Z,719.66
2017-12-19T01:22:27.880Z,719.59
2017-12-19T01:23:28.349Z,719.60
2017-12-19T01:24:28.812Z,719.55
2017-12-19T01:25:29.278Z,719.63
2017-12-19T01:26:29.747Z,719.62
2017-12-19T01:27:30.219Z,719.59
2017-12-19T01:28:30.678Z,719.52
2017-12-19T01:29:31.142Z,719.54
2017-12-19T01:30:31.608Z,719.64
2017-12-19T01:31:32.075Z,719.61
2017-12-19T01:32:32.540Z,719.55
2017-12-19T01:33:33.006Z,719.65
2017-12-19T01:34:33.471Z,719.66
2017-12-19T01:35:33.938Z,719.70
2017-12-19T01:36:34.442Z,719.62
2017-12-19T01:37:34.921Z,719.71
2017-12-19T01:38:35.336Z,719.65
2017-12-19T01:39:35.802Z,719.70
2017-12-19T01:40:36.267Z,719.67
2017-12-19T01:41:36.733Z,719.72
2017-12-19T01:42:37.200Z,719.67
2017-12-19T01:43:37.687Z,719.69
2017-12-19T01:44:38.130Z,719.71
2017-12-19T01:45:38.596Z,719.72
2017-12-19T01:46:39.063Z,719.73
2017-12-19T01:47:39.528Z,719.70
2017-12-19T01:48:39.994Z,719.78
2017-12-19T01:49:40.461Z,719.78
2017-12-19T01:50:40.926Z,719.77
2017-12-19T01:51:41.395Z,719.81
2017-12-19T01:52:41.856Z,719.79
2017-12-19T01:53:42.325Z,719.89
2017-12-19T01:54:42.789Z,719.89
2017-12-19T01:55:43.259Z,719.89
2017-12-19T01:56:43.719Z,719.90
2017-12-19T01:57:44.186Z,719.86
2017-12-19T01:58:44.651Z,719.90
2017-12-19T01:59:45.117Z,719.87
2017-12-19T02:00:45.584Z,719.76
2017-12-19T02:01:46.048Z,719.84
2017-12-19T02:02:46.565Z,719.86
2017-12-19T02:03:46.979Z,719.91
2017-12-19T02:04:47.452Z,719.91
2017-12-19T02:05:47.910Z,719.97
2017-12-19T02:06:48.377Z,719.95
2017-12-19T02:07:48.843Z,719.91
2017-12-19T02:08:49.307Z,719.98
2017-12-19T02:09:49.774Z,719.95
2017-12-19T02:10:50.239Z,719.93
2017-12-19T02:11:50.704Z,719.93
2017-12-19T02:12:51.170Z,719.83
2017-12-19T02:13:51.635Z,719.83
2017-12-19T02:14:52.101Z,719.80
2017-12-19T02:15:52.566Z,719.86
2017-12-19T02:16:53.034Z,719.92
2017-12-19T02:17:53.498Z,719.94
2017-12-19T02:18:53.964Z,719.98
2017-12-19T02:19:54.430Z,719.97
2017-12-19T02:20:54.894Z,720.02
2017-12-19T02:21:55.361Z,719.99
2017-12-19T02:22:55.827Z,719.94
2017-12-19T02:23:56.633Z,719.96
2017-12-19T02:24:56.757Z,719.99
2017-12-19T02:25:57.223Z,719.93
2017-12-19T02:26:57.690Z,719.99
2017-12-19T02:27:58.154Z,719.95
2017-12-19T02:28:58.626Z,719.95
2017-12-19T02:29:59.085Z,719.98
2017-12-19T02:30:59.552Z,719.98
2017-12-19T02:32:00.017Z,720.00
2017-12-19T02:33:00.482Z,720.03
2017-12-19T02:34:00.948Z,719.99
2017-12-19T02:35:01.414Z,719.96
2017-12-19T02:36:01.880Z,719.93
2017-12-19T02:37:02.346Z,719.89
2017-12-19T02:38:02.973Z,719.94
2017-12-19T02:39:03.277Z,719.91
2017-12-19T02:40:03.745Z,719.91
2017-12-19T02:41:04.206Z,719.95
2017-12-19T02:42:04.675Z,719.86
2017-12-19T02:43:05.190Z,719.83
2017-12-19T02:44:05.604Z,719.80
2017-12-19T02:45:06.072Z,719.78
2017-12-19T02:46:06.537Z,719.81
2017-12-19T02:47:07.204Z,719.86
2017-12-19T02:48:07.467Z,719.93
2017-12-19T02:49:07.932Z,719.82
2017-12-19T02:50:08.399Z,719.81
2017-12-19T02:51:08.864Z,719.85
2017-12-19T02:52:09.331Z,719.78
2017-12-19T02:53:09.846Z,719.80
2017-12-19T02:54:10.260Z,719.83
2017-12-19T02:55:10.766Z,719.81
2017-12-19T02:56:11.193Z,719.77
2017-12-19T02:57:11.658Z,719.80
2017-12-19T02:58:12.123Z,719.89
2017-12-19T02:59:12.589Z,719.97
2017-12-19T03:00:13.054Z,719.91
2017-12-19T03:01:13.520Z,719.85
2017-12-19T03:02:13.987Z,719.82
2017-12-19T03:03:14.452Z,719.85
2017-12-19T03:04:14.920Z,719.94
2017-12-19T03:05:15.382Z,719.86
2017-12-19T03:06:15.852Z,719.94
2017-12-19T03:07:16.315Z,719.90
2017-12-19T03:08:16.831Z,719.91
2017-12-19T03:09:17.586Z,719.87
2017-12-19T03:10:17.713Z,719.88
2017-12-19T03:11:18.178Z,719.92
2017-12-19T03:12:18.643Z,719.94
2017-12-19T03:13:19.108Z,719.95
2017-12-19T03:14:19.574Z,719.92
2017-12-19T03:15:20.041Z,719.94
2017-12-19T03:16:20.505Z,719.97
2017-12-19T03:17:20.971Z,720.07
2017-12-19T03:18:21.491Z,720.04
2017-12-19T03:19:21.907Z,719.92
2017-12-19T03:20:22.368Z,719.99
2017-12-19T03:21:22.835Z,720.04
2017-12-19T03:22:23.301Z,719.91
2017-12-19T03:23:23.765Z,719.94
2017-12-19T03:24:24.232Z,719.91
2017-12-19T03:25:24.696Z,719.94
2017-12-19T03:26:25.164Z,719.94
2017-12-19T03:27:25.632Z,719.92
2017-12-19T03:28:26.094Z,719.94
2017-12-19T03:29:26.559Z,719.91
2017-12-19T03:30:27.025Z,719.91
2017-12-19T03:31:27.493Z,719.92
2017-12-19T03:32:27.958Z,719.89
2017-12-19T03:33:28.472Z,719.95
2017-12-19T03:34:28.888Z,719.96
2017-12-19T03:35:29.353Z,719.98
2017-12-19T03:36:29.819Z,720.00
2017-12-19T03:37:30.284Z,720.01
2017-12-19T03:38:30.750Z,719.93
2017-12-19T03:39:31.216Z,719.98
2017-12-19T03:40:31.682Z,719.96
2017-12-19T03:41:32.150Z,720.02
2017-12-19T03:42:32.613Z,720.07
2017-12-19T03:43:33.130Z,720.04
2017-12-19T03:44:33.887Z,720.02
2017-12-19T03:45:34.011Z,720.05
2017-12-19T03:46:34.476Z,720.07
2017-12-19T03:47:34.942Z,719.94
2017-12-19T03:48:35.459Z,719.97
2017-12-19T03:49:35.872Z,720.03
2017-12-19T03:50:36.340Z,720.02
2017-12-19T03:51:36.807Z,719.99
2017-12-19T03:52:37.274Z,719.97
2017-12-19T03:53:37.746Z,720.04
2017-12-19T03:54:38.204Z,719.97
2017-12-19T03:55:38.667Z,719.99
2017-12-19T03:56:39.133Z,720.02
2017-12-19T03:57:39.598Z,720.05
2017-12-19T03:58:40.064Z,720.04
2017-12-19T03:59:40.530Z,720.09
2017-12-19T04:00:40.996Z,719.97
2017-12-19T04:01:41.463Z,719.97
2017-12-19T04:02:41.927Z,720.05
2017-12-19T04:03:42.396Z,720.12
2017-12-19T04:04:42.858Z,720.04
2017-12-19T04:05:43.323Z,720.10
2017-12-19T04:06:43.790Z,720.04
2017-12-19T04:07:44.258Z,720.16
2017-12-19T04:08:44.720Z,720.11
2017-12-19T04:09:45.185Z,720.06
2017-12-19T04:10:45.652Z,720.12
2017-12-19T04:11:46.118Z,720.12
2017-12-19T04:12:46.583Z,720.06
2017-12-19T04:13:47.050Z,720.10
2017-12-19T04:14:47.516Z,720.10
2017-12-19T04:15:47.980Z,720.03
2017-12-19T04:16:48.446Z,719.97
2017-12-19T04:17:48.911Z,720.06
2017-12-19T04:18:49.427Z,720.07
2017-12-19T04:19:49.842Z,720.06
2017-12-19T04:20:50.311Z,720.07
2017-12-19T04:21:50.772Z,720.09
2017-12-19T04:22:51.240Z,720.02
2017-12-19T04:23:51.705Z,719.98
2017-12-19T04:24:52.171Z,720.00
2017-12-19T04:25:52.975Z,720.03
2017-12-19T04:26:53.101Z,719.97
2017-12-19T04:27:53.567Z,719.99
2017-12-19T04:28:54.034Z,720.01
2017-12-19T04:29:54.500Z,720.14
2017-12-19T04:30:54.963Z,720.09
2017-12-19T04:31:55.428Z,720.07
2017-12-19T04:32:55.897Z,720.08
2017-12-19T04:33:56.359Z,720.07
2017-12-19T04:34:56.826Z,720.04
2017-12-19T04:35:57.291Z,720.09
2017-12-19T04:36:57.757Z,720.14
2017-12-19T04:37:58.224Z,720.11
2017-12-19T04:38:58.689Z,720.13
2017-12-19T04:39:59.154Z,720.06
2017-12-19T04:40:59.621Z,720.05
2017-12-19T04:42:00.087Z,720.07
2017-12-19T04:43:00.550Z,720.17
2017-12-19T04:44:01.015Z,720.13
2017-12-19T04:45:01.483Z,720.17
2017-12-19T04:46:01.947Z,720.09
2017-12-19T04:47:02.450Z,720.12
2017-12-19T04:48:02.916Z,720.13
2017-12-19T04:49:03.394Z,720.16
2017-12-19T04:50:03.808Z,720.15
2017-12-19T04:51:04.275Z,720.17
2017-12-19T04:52:04.741Z,720.14
2017-12-19T04:53:05.207Z,720.19
2017-12-19T04:54:05.721Z,720.13
2017-12-19T04:55:06.196Z,720.22
2017-12-19T04:56:06.602Z,720.18
2017-12-19T04:57:07.068Z,720.24
2017-12-19T04:58:07.533Z,720.23
2017-12-19T04:59:07.998Z,720.22
2017-12-19T05:00:08.464Z,720.23
2017-12-19T05:01:09.328Z,720.23
2017-12-19T05:02:09.397Z,720.29
2017-12-19T05:03:09.861Z,720.26
2017-12-19T05:04:10.327Z,720.29
2017-12-19T05:05:10.792Z,720.13
2017-12-19T05:06:11.257Z,720.25
2017-12-19T05:07:11.728Z,720.26
2017-12-19T05:08:12.187Z,720.19
2017-12-19T05:09:12.704Z,720.30
2017-12-19T05:10:13.118Z,720.11
2017-12-19T05:11:13.583Z,720.19
2017-12-19T05:12:14.051Z,720.15
2017-12-19T05:13:14.516Z,720.17
2017-12-19T05:14:14.980Z,720.16
2017-12-19T05:15:15.446Z,720.05
2017-12-19T05:16:15.917Z,720.13
2017-12-19T05:17:16.718Z,720.09
2017-12-19T05:18:16.841Z,720.13
2017-12-19T05:19:17.308Z,720.04
2017-12-19T05:20:17.776Z,720.05
2017-12-19T05:21:18.239Z,720.11
2017-12-19T05:22:18.704Z,720.18
2017-12-19T05:23:19.169Z,720.09
2017-12-19T05:24:19.686Z,720.24
2017-12-19T05:25:20.101Z,720.21
2017-12-19T05:26:20.566Z,720.26
2017-12-19T05:27:21.033Z,720.22
2017-12-19T05:28:21.496Z,720.25
2017-12-19T05:29:22.012Z,720.17
2017-12-19T05:30:22.427Z,720.05
2017-12-19T05:31:22.893Z,720.08
2017-12-19T05:32:23.358Z,720.00
2017-12-19T05:33:23.823Z,720.20
2017-12-19T05:34:24.290Z,720.08
2017-12-19T05:35:24.754Z,720.10
2017-12-19T05:36:25.220Z,720.11
2017-12-19T05:37:25.686Z,720.22
2017-12-19T05:38:26.154Z,720.12
2017-12-19T05:39:26.665Z,720.35
2017-12-19T05:40:27.081Z,720.31
2017-12-19T05:41:27.546Z,720.34
2017-12-19T05:42:28.011Z,720.28
2017-12-19T05:43:28.477Z,720.29
2017-12-19T05:44:28.994Z,720.22
2017-12-19T05:45:29.409Z,720.21
2017-12-19T05:46:29.872Z,720.32
2017-12-19T05:47:30.341Z,720.17
2017-12-19T05:48:30.803Z,720.11
2017-12-19T05:49:31.268Z,720.26
2017-12-19T05:50:31.781Z,720.46
2017-12-19T05:51:32.198Z,720.28
2017-12-19T05:52:32.664Z,720.45
2017-12-19T05:53:33.130Z,720.40
2017-12-19T05:54:33.594Z,720.39
2017-12-19T05:55:34.400Z,720.37
2017-12-19T05:56:34.527Z,720.30
2017-12-19T05:57:34.991Z,720.42
2017-12-19T05:58:35.455Z,720.40
2017-12-19T05:59:35.922Z,720.29
2017-12-19T06:00:36.388Z,720.31
2017-12-19T06:01:36.851Z,720.37
2017-12-19T06:02:37.316Z,720.39
2017-12-19T06:03:37.784Z,720.47
2017-12-19T06:04:38.247Z,720.43
2017-12-19T06:05:38.714Z,720.41
2017-12-19T06:06:39.214Z,720.47
2017-12-19T06:07:39.645Z,720.54
2017-12-19T06:08:40.108Z,720.50
2017-12-19T06:09:40.574Z,720.50
2017-12-19T06:10:41.037Z,720.68
2017-12-19T06:11:41.503Z,720.71
2017-12-19T06:12:41.968Z,720.60
2017-12-19T06:13:42.437Z,720.61
2017-12-19T06:14:42.902Z,720.68
2017-12-19T06:15:43.402Z,720.76
2017-12-19T06:16:43.836Z,720.83
2017-12-19T06:17:44.295Z,720.74
2017-12-19T06:18:44.760Z,720.87
2017-12-19T06:19:45.617Z,720.76
2017-12-19T06:20:45.692Z,720.71
2017-12-19T06:21:46.157Z,720.76
2017-12-19T06:22:46.621Z,720.75
2017-12-19T06:23:47.087Z,720.84
2017-12-19T06:24:47.553Z,720.80
2017-12-19T06:25:48.023Z,720.80
2017-12-19T06:26:48.482Z,720.81
2017-12-19T06:27:48.947Z,720.85
2017-12-19T06:28:49.412Z,720.75
2017-12-19T06:29:49.878Z,720.86
2017-12-19T06:30:50.342Z,720.86
2017-12-19T06:31:50.808Z,720.83
2017-12-19T06:32:51.275Z,720.86
2017-12-19T06:33:51.740Z,720.89
2017-12-19T06:34:52.204Z,720.95
2017-12-19T06:35:52.669Z,721.09
2017-12-19T06:36:53.136Z,720.96
2017-12-19T06:37:53.802Z,720.89
2017-12-19T06:38:54.065Z,720.99
2017-12-19T06:39:54.581Z,721.12
2017-12-19T06:40:55.034Z,721.06
2017-12-19T06:41:55.462Z,720.94
2017-12-19T06:42:55.925Z,721.07
2017-12-19T06:43:56.393Z,720.99
2017-12-19T06:44:56.906Z,720.70
2017-12-19T06:45:57.322Z,720.98
2017-12-19T06:46:57.796Z,721.05
2017-12-19T06:47:58.592Z,721.03
2017-12-19T06:48:58.717Z,720.88
2017-12-19T06:49:59.183Z,720.93
2017-12-19T06:50:59.648Z,720.96
2017-12-19T06:52:00.111Z,721.03
2017-12-19T06:53:00.579Z,721.08
2017-12-19T06:54:01.043Z,721.06
2017-12-19T06:55:01.558Z,721.08
2017-12-19T06:56:01.972Z,721.15
2017-12-19T06:57:02.438Z,721.07
2017-12-19T06:58:02.905Z,720.97
2017-12-19T06:59:03.368Z,721.02
2017-12-19T07:00:03.884Z,721.14
2017-12-19T07:01:04.300Z,721.14
2017-12-19T07:02:04.767Z,721.07
2017-12-19T07:03:05.231Z,721.19
2017-12-19T07:04:05.696Z,721.19
2017-12-19T07:05:06.161Z,721.26
2017-12-19T07:06:06.625Z,721.25
2017-12-19T07:07:07.090Z,721.14
2017-12-19T07:08:07.556Z,721.08
2017-12-19T07:09:08.021Z,721.22
2017-12-19T07:10:08.489Z,721.26
2017-12-19T07:11:08.953Z,721.16
2017-12-19T07:12:09.416Z,721.22
2017-12-19T07:13:09.883Z,721.22
2017-12-19T07:14:10.347Z,721.25
2017-12-19T07:15:10.863Z,721.16
2017-12-19T07:16:11.277Z,721.28
2017-12-19T07:17:11.745Z,721.19
2017-12-19T07:18:12.208Z,721.22
2017-12-19T07:19:12.672Z,721.33
2017-12-19T07:20:13.140Z,721.30
2017-12-19T07:21:13.605Z,721.30
2017-12-19T07:22:14.071Z,721.26
2017-12-19T07:23:14.533Z,721.41
2017-12-19T07:24:15.000Z,721.54
2017-12-19T07:25:15.516Z,721.39
2017-12-19T07:26:15.931Z,721.16
2017-12-19T07:27:16.403Z,721.23
2017-12-19T07:28:16.860Z,721.19
2017-12-19T07:29:17.327Z,721.33
2017-12-19T07:30:17.791Z,721.13
2017-12-19T07:31:18.258Z,721.15
2017-12-19T07:32:18.721Z,721.29
2017-12-19T07:33:19.187Z,721.34
2017-12-19T07:34:19.653Z,721.23
2017-12-19T07:35:20.117Z,721.40
2017-12-19T07:36:20.583Z,721.31
2017-12-19T07:37:21.047Z,721.32
2017-12-19T07:38:21.514Z,721.33
2017-12-19T07:39:21.978Z,721.36
2017-12-19T07:40:22.494Z,721.20
2017-12-19T07:41:22.909Z,721.33
2017-12-19T07:42:23.374Z,721.26
2017-12-19T07:43:23.839Z,721.40
2017-12-19T07:44:24.304Z,721.57
2017-12-19T07:45:24.771Z,721.46
2017-12-19T07:46:25.236Z,721.38
2017-12-19T07:47:25.701Z,721.53
2017-12-19T07:48:26.167Z,721.54
2017-12-19T07:49:26.633Z,721.45
2017-12-19T07:50:27.098Z,721.53
2017-12-19T07:51:27.564Z,721.48
2017-12-19T07:52:28.368Z,721.62
2017-12-19T07:53:28.492Z,721.58
2017-12-19T07:54:28.959Z,721.61
2017-12-19T07:55:29.424Z,721.59
2017-12-19T07:56:29.891Z,721.58
2017-12-19T07:57:30.355Z,721.60
2017-12-19T07:58:30.821Z,721.60
2017-12-19T07:59:31.287Z,721.56
2017-12-19T08:00:31.753Z,721.63
2017-12-19T08:01:32.217Z,721.64
2017-12-19T08:02:32.686Z,721.67
2017-12-19T08:03:33.149Z,721.58
2017-12-19T08:04:33.615Z,721.64
2017-12-19T08:05:34.131Z,721.71
2017-12-19T08:06:34.887Z,721.64
2017-12-19T08:07:35.012Z,721.59
2017-12-19T08:08:35.477Z,721.68
2017-12-19T08:09:35.943Z,721.53
2017-12-19T08:10:36.459Z,721.62
2017-12-19T08:11:36.874Z,721.53
2017-12-19T08:12:37.340Z,721.57
2017-12-19T08:13:37.805Z,721.58
2017-12-19T08:14:38.273Z,721.65
2017-12-19T08:15:38.738Z,721.59
2017-12-19T08:16:39.204Z,721.57
2017-12-19T08:17:39.672Z,721.68
2017-12-19T08:18:40.136Z,721.58
2017-12-19T08:19:40.606Z,721.62
2017-12-19T08:20:41.067Z,721.69
2017-12-19T08:21:41.533Z,721.62
2017-12-19T08:22:42.036Z,721.72
2017-12-19T08:23:42.465Z,721.79
2017-12-19T08:24:42.930Z,721.74
2017-12-19T08:25:43.398Z,721.74
2017-12-19T08:26:43.863Z,721.69
2017-12-19T08:27:44.328Z,721.69
2017-12-19T08:28:44.796Z,721.64
2017-12-19T08:29:45.262Z,721.69
2017-12-19T08:30:46.119Z,721.65
2017-12-19T08:31:46.193Z,721.66
2017-12-19T08:32:46.659Z,721.59
2017-12-19T08:33:47.126Z,721.70
2017-12-19T08:34:47.592Z,721.74
2017-12-19T08:35:48.057Z,721.71
2017-12-19T08:36:48.524Z,721.67
2017-12-19T08:37:48.990Z,721.72
2017-12-19T08:38:49.459Z,721.84
2017-12-19T08:39:49.923Z,721.73
2017-12-19T08:40:50.591Z,721.72
2017-12-19T08:41:50.856Z,721.71
2017-12-19T08:42:51.321Z,721.78
2017-12-19T08:43:51.787Z,721.76
2017-12-19T08:44:52.292Z,721.82
2017-12-19T08:45:52.771Z,721.74
2017-12-19T08:46:53.187Z,721.82
2017-12-19T08:47:53.654Z,721.86
2017-12-19T08:48:54.119Z,721.82
2017-12-19T08:49:54.587Z,721.92
2017-12-19T08:50:55.106Z,722.00
2017-12-19T08:51:55.521Z,721.98
2017-12-19T08:52:55.986Z,721.98
2017-12-19T08:53:56.454Z,722.03
2017-12-19T08:54:56.957Z,722.01
2017-12-19T08:55:57.387Z,722.07
2017-12-19T08:56:57.853Z,722.07
2017-12-19T08:57:58.321Z,722.03
2017-12-19T08:58:58.787Z,722.10
2017-12-19T08:59:59.254Z,722.03
2017-12-19T09:00:59.719Z,722.06
2017-12-19T09:02:00.190Z,722.05
2017-12-19T09:03:00.653Z,722.04
2017-12-19T09:04:01.124Z,722.10
2017-12-19T09:05:01.594Z,722.08
2017-12-19T09:06:02.107Z,722.11
2017-12-19T09:07:02.521Z,722.19
2017-12-19T09:08:02.990Z,722.02
2017-12-19T09:09:03.456Z,722.07
2017-12-19T09:10:03.924Z,722.10
2017-12-19T09:11:04.392Z,722.02
2017-12-19T09:12:04.860Z,722.16
2017-12-19T09:13:05.325Z,722.21
2017-12-19T09:14:05.796Z,722.21
2017-12-19T09:15:06.262Z,722.28
2017-12-19T09:16:06.987Z,722.15
2017-12-19T09:17:07.196Z,722.28
2017-12-19T09:18:07.665Z,722.18
2017-12-19T09:19:08.133Z,722.30
2017-12-19T09:20:08.600Z,722.30
2017-12-19T09:21:09.067Z,722.29
2017-12-19T09:22:09.536Z,722.23
2017-12-19T09:23:10.004Z,722.30
2017-12-19T09:24:10.473Z,722.30
2017-12-19T09:25:10.941Z,722.24
2017-12-19T09:26:11.411Z,722.31
2017-12-19T09:27:11.878Z,722.35
2017-12-19T09:28:12.350Z,722.30
2017-12-19T09:29:12.819Z,722.24
2017-12-19T09:30:13.285Z,722.30
2017-12-19T09:31:13.751Z,722.32
2017-12-19T09:32:14.220Z,722.33
2017-12-19T09:33:14.690Z,722.42
2017-12-19T09:34:15.157Z,722.36
2017-12-19T09:35:15.627Z,722.28
2017-12-19T09:36:16.098Z,722.32
2017-12-19T09:37:16.563Z,722.30
2017-12-19T09:38:17.374Z,722.28
2017-12-19T09:39:17.503Z,722.31
2017-12-19T09:40:17.971Z,722.36
2017-12-19T09:41:18.441Z,722.39
2017-12-19T09:42:18.909Z,722.35
2017-12-19T09:43:19.379Z,722.34
2017-12-19T09:44:19.848Z,722.38
2017-12-19T09:45:20.320Z,722.36
2017-12-19T09:46:20.838Z,722.37
2017-12-19T09:47:21.258Z,722.40
2017-12-19T09:48:22.066Z,722.35
2017-12-19T09:49:22.536Z,722.50
2017-12-19T09:50:23.006Z,722.46
2017-12-19T09:51:23.136Z,722.38
2017-12-19T09:52:23.605Z,722.38
2017-12-19T09:53:24.074Z,722.43
2017-12-19T09:54:24.886Z,722.42
2017-12-19T09:55:25.015Z,722.45
2017-12-19T09:56:25.535Z,722.46
2017-12-19T09:57:25.963Z,722.46
2017-12-19T09:58:26.465Z,722.50
2017-12-19T09:59:26.896Z,722.58
2017-12-19T10:00:27.365Z,722.55
2017-12-19T10:01:28.039Z,722.67
2017-12-19T10:02:28.308Z,722.65
2017-12-19T10:03:28.776Z,722.62
2017-12-19T10:04:29.246Z,722.61
2017-12-19T10:05:29.716Z,722.71
2017-12-19T10:06:30.238Z,722.66
2017-12-19T10:07:30.658Z,722.69
2017-12-19T10:08:31.128Z,722.71
2017-12-19T10:09:31.601Z,722.62
2017-12-19T10:10:32.070Z,722.76
2017-12-19T10:11:32.592Z,722.74
2017-12-19T10:12:33.014Z,722.75
2017-12-19T10:13:33.482Z,722.74
2017-12-19T10:14:33.954Z,722.77
2017-12-19T10:15:34.427Z,722.77
2017-12-19T10:16:34.894Z,722.75
2017-12-19T10:17:35.412Z,722.75
2017-12-19T10:18:35.838Z,722.71
2017-12-19T10:19:36.308Z,722.74
2017-12-19T10:20:36.779Z,722.76
2017-12-19T10:21:37.251Z,722.72
2017-12-19T10:22:37.778Z,722.74
2017-12-19T10:23:38.194Z,722.70
2017-12-19T10:24:38.665Z,722.73
2017-12-19T10:25:39.341Z,722.62
2017-12-19T10:27:40.080Z,722.61
2017-12-19T10:28:40.587Z,722.53
2017-12-19T10:29:41.021Z,722.55
2017-12-19T10:30:41.494Z,722.58
2017-12-19T10:31:41.966Z,722.61
2017-12-19T10:32:42.436Z,722.60
2017-12-19T10:33:42.908Z,722.56
2017-12-19T10:34:43.380Z,722.61
2017-12-19T10:35:43.853Z,722.49
2017-12-19T10:36:44.374Z,722.67
2017-12-19T10:37:44.833Z,722.63
2017-12-19T10:38:45.268Z,722.55
2017-12-19T10:39:45.741Z,722.52
2017-12-19T10:40:46.215Z,722.52
2017-12-19T10:41:46.734Z,722.57
2017-12-19T10:42:47.156Z,722.59
2017-12-19T10:43:47.628Z,722.64
2017-12-19T10:44:48.101Z,722.62
2017-12-19T10:45:48.575Z,722.60
2017-12-19T10:46:49.044Z,722.62
2017-12-19T10:47:49.518Z,722.72
2017-12-19T10:48:50.026Z,722.63
2017-12-19T10:49:50.459Z,722.53
2017-12-19T10:50:50.938Z,722.56
2017-12-19T10:51:51.406Z,722.52
2017-12-19T10:52:51.877Z,722.52
2017-12-19T10:53:52.352Z,722.48
2017-12-19T10:54:52.823Z,722.50
2017-12-19T10:55:53.295Z,722.48
2017-12-19T10:56:53.880Z,722.50
2017-12-19T10:57:54.240Z,722.45
2017-12-19T10:58:54.713Z,722.54
2017-12-19T10:59:55.186Z,722.44
2017-12-19T11:00:55.658Z,722.52
2017-12-19T11:01:56.131Z,722.54
2017-12-19T11:02:56.605Z,722.41
2017-12-19T11:03:57.081Z,722.41
2017-12-19T11:04:57.549Z,722.42
2017-12-19T11:05:58.025Z,722.45
2017-12-19T11:06:58.697Z,722.39
2017-12-19T11:07:58.974Z,722.42
2017-12-19T11:08:59.441Z,722.35
2017-12-19T11:09:59.914Z,722.41
2017-12-19T11:11:00.436Z,722.33
2017-12-19T11:12:00.860Z,722.36
2017-12-19T11:13:01.335Z,722.32
2017-12-19T11:14:01.806Z,722.36
2017-12-19T11:15:02.279Z,722.36
2017-12-19T11:16:02.756Z,722.35
2017-12-19T11:17:03.225Z,722.40
2017-12-19T11:18:03.702Z,722.40
2017-12-19T11:19:04.173Z,722.40
2017-12-19T11:20:04.646Z,722.41
2017-12-19T11:21:05.120Z,722.36
2017-12-19T11:22:05.594Z,722.39
2017-12-19T11:23:06.102Z,722.42
2017-12-19T11:24:06.539Z,722.38
2017-12-19T11:25:07.012Z,722.37
2017-12-19T11:26:07.485Z,722.34
2017-12-19T11:27:08.555Z,722.33
2017-12-19T11:28:08.434Z,722.29
2017-12-19T11:29:08.906Z,722.27
2017-12-19T11:30:09.380Z,722.34
2017-12-19T11:31:09.854Z,722.32
2017-12-19T11:32:10.530Z,722.29
2017-12-19T11:33:10.801Z,722.32
2017-12-19T11:34:11.276Z,722.37
2017-12-19T11:35:11.748Z,722.36
2017-12-19T11:36:12.223Z,722.32
2017-12-19T11:37:12.696Z,722.29
2017-12-19T11:38:13.171Z,722.25
2017-12-19T11:39:13.644Z,722.26
2017-12-19T11:40:14.118Z,722.25
2017-12-19T11:41:14.590Z,722.19
2017-12-19T11:42:15.119Z,722.24
2017-12-19T11:43:15.539Z,722.29
2017-12-19T11:44:16.016Z,722.33
2017-12-19T11:45:16.487Z,722.29
2017-12-19T11:46:16.961Z,722.33
2017-12-19T11:47:17.436Z,722.32
2017-12-19T11:48:17.909Z,722.27
2017-12-19T11:49:18.382Z,722.28
2017-12-19T11:50:18.859Z,722.29
2017-12-19T11:51:19.332Z,722.39
2017-12-19T11:52:19.807Z,722.39
2017-12-19T11:53:20.280Z,722.33
2017-12-19T11:54:20.753Z,722.34
2017-12-19T11:55:21.229Z,722.36
2017-12-19T11:56:21.741Z,722.39
2017-12-19T11:57:22.214Z,722.39
2017-12-19T11:58:22.651Z,722.36
2017-12-19T11:59:23.127Z,722.36
2017-12-19T12:00:23.600Z,722.42
2017-12-19T12:01:24.072Z,722.44
2017-12-19T12:02:24.549Z,722.46
2017-12-19T12:03:25.023Z,722.33
2017-12-19T12:04:25.498Z,722.47
2017-12-19T12:05:25.971Z,722.46
2017-12-19T12:06:26.788Z,722.52
2017-12-19T12:07:26.921Z,722.54
2017-12-19T12:08:27.396Z,722.55
2017-12-19T12:09:27.869Z,722.56
2017-12-19T12:10:28.344Z,722.50
2017-12-19T12:11:28.819Z,722.43
2017-12-19T12:12:29.293Z,722.39
2017-12-19T12:13:29.769Z,722.39
2017-12-19T12:14:30.242Z,722.40
2017-12-19T12:15:30.715Z,722.41
2017-12-19T12:16:31.192Z,722.46
2017-12-19T12:17:31.704Z,722.35
2017-12-19T12:18:32.142Z,722.32
2017-12-19T12:19:32.617Z,722.37
2017-12-19T12:20:33.091Z,722.35
2017-12-19T12:21:33.565Z,722.38
2017-12-19T12:22:34.040Z,722.38
2017-12-19T12:23:34.514Z,722.32
2017-12-19T12:24:34.989Z,722.35
2017-12-19T12:25:35.463Z,722.52
2017-12-19T12:26:35.939Z,722.46
2017-12-19T12:27:36.463Z,722.34
2017-12-19T12:28:36.889Z,722.29
2017-12-19T12:29:37.364Z,722.25
2017-12-19T12:30:37.840Z,722.32
2017-12-19T12:31:38.313Z,722.24
2017-12-19T12:32:38.838Z,722.31
2017-12-19T12:33:39.261Z,722.25
2017-12-19T12:34:39.736Z,722.26
2017-12-19T12:35:40.212Z,722.24